createdAt,value
2018-07-15T00:00:05.000Z,31.4
2018-07-15T00:01:05.000Z,31.5
2018-07-15T00:03:05.000Z,31.5
2018-07-15T00:04:05.000Z,31.5
2018-07-15T00:06:05.000Z,31.5
2018-07-15T00:07:05.000Z,31.4
2018-07-15T00:09:05.000Z,31.4
2018-07-15T00:10:05.000Z,31.4
2018-07-15T00:11:05.000Z,31.5
2018-07-15T00:13:05.000Z,31.4
2018-07-15T00:15:05.000Z,31.4
2018-07-15T00:16:05.000Z,31.4
2018-07-15T00:18:05.000Z,31.3
2018-07-15T00:20:05.000Z,31.2
2018-07-15T00:22:05.000Z,31.1
2018-07-15T00:23:05.000Z,31.1
2018-07-15T00:24:05.000Z,31.1
2018-07-15T00:25:05.000Z,31.2
2018-07-15T00:27:05.000Z,31.3
2018-07-15T00:28:05.000Z,31.3
2018-07-15T00:29:05.000Z,31.3
2018-07-15T00:31:05.000Z,31.3
2018-07-15T00:32:05.000Z,31.3
2018-07-15T00:34:05.000Z,31.3
2018-07-15T00:36:05.000Z,31.3
2018-07-15T00:37:05.000Z,31.3
2018-07-15T00:39:05.000Z,31.3
2018-07-15T00:41:05.000Z,31.2
2018-07-15T00:42:05.000Z,31.2
2018-07-15T00:43:50.000Z,31.1
2018-07-15T00:45:05.000Z,31.1
2018-07-15T00:46:05.000Z,31.1
2018-07-15T00:48:05.000Z,31.1
2018-07-15T00:50:05.000Z,31.1
2018-07-15T00:52:05.000Z,31
2018-07-15T00:54:05.000Z,31
2018-07-15T00:55:05.000Z,31
2018-07-15T00:57:05.000Z,31
2018-07-15T00:59:05.000Z,31
2018-07-15T01:00:05.000Z,31
2018-07-15T01:01:50.000Z,31.1
2018-07-15T01:03:06.000Z,31.1
2018-07-15T01:05:06.000Z,31
2018-07-15T01:07:06.000Z,31
2018-07-15T01:09:06.000Z,31
2018-07-15T01:10:06.000Z,31
2018-07-15T01:11:06.000Z,31.1
2018-07-15T01:13:06.000Z,31.2
2018-07-15T01:14:06.000Z,31.2
2018-07-15T01:16:06.000Z,31.2
2018-07-15T01:17:06.000Z,31.2
2018-07-15T01:18:06.000Z,31.2
2018-07-15T01:20:06.000Z,31.2
2018-07-15T01:22:06.000Z,31.2
2018-07-15T01:23:06.000Z,31.1
2018-07-15T01:24:06.000Z,31.2
2018-07-15T01:25:06.000Z,31.2
2018-07-15T01:26:06.000Z,31.3
2018-07-15T01:28:06.000Z,31.4
2018-07-15T01:30:06.000Z,31.3
2018-07-15T01:31:06.000Z,31.2
2018-07-15T01:32:06.000Z,31.2
2018-07-15T01:33:06.000Z,31.2
2018-07-15T01:35:06.000Z,31.2
2018-07-15T01:36:06.000Z,31.2
2018-07-15T01:37:06.000Z,31.3
2018-07-15T01:38:06.000Z,31.3
2018-07-15T01:39:06.000Z,31.4
2018-07-15T01:41:06.000Z,31.4
2018-07-15T01:42:06.000Z,31.4
2018-07-15T01:44:06.000Z,31.4
2018-07-15T01:45:06.000Z,31.4
2018-07-15T01:46:06.000Z,31.4
2018-07-15T01:48:06.000Z,31.3
2018-07-15T01:49:06.000Z,31.2
2018-07-15T01:50:06.000Z,31.3
2018-07-15T01:52:06.000Z,31.2
2018-07-15T01:53:06.000Z,31.2
2018-07-15T01:54:51.000Z,31.2
2018-07-15T01:56:06.000Z,31.2
2018-07-15T01:58:06.000Z,31.1
2018-07-15T02:00:06.000Z,31
2018-07-15T02:02:06.000Z,30.9
2018-07-15T02:04:06.000Z,30.9
2018-07-15T02:05:06.000Z,30.9
2018-07-15T02:07:05.000Z,31
2018-07-15T02:09:05.000Z,31
2018-07-15T02:10:05.000Z,31
2018-07-15T02:11:05.000Z,31.1
2018-07-15T02:12:05.000Z,31.1
2018-07-15T02:14:05.000Z,31.2
2018-07-15T02:16:05.000Z,31.1
2018-07-15T02:17:05.000Z,31.1
2018-07-15T02:19:05.000Z,31.1
2018-07-15T02:20:05.000Z,31
2018-07-15T02:21:50.000Z,31.1
2018-07-15T02:23:05.000Z,31
2018-07-15T02:25:05.000Z,31
2018-07-15T02:27:05.000Z,30.9
2018-07-15T02:29:05.000Z,30.9
2018-07-15T02:31:05.000Z,30.8
2018-07-15T02:32:05.000Z,30.8
2018-07-15T02:33:05.000Z,30.9
2018-07-15T02:35:05.000Z,31
2018-07-15T02:37:05.000Z,31
2018-07-15T02:38:05.000Z,31
2018-07-15T02:39:50.000Z,31
2018-07-15T02:41:05.000Z,31
2018-07-15T02:42:05.000Z,31
2018-07-15T02:43:50.000Z,31.1
2018-07-15T02:45:05.000Z,31.1
2018-07-15T02:46:05.000Z,31.1
2018-07-15T02:48:05.000Z,31.1
2018-07-15T02:49:05.000Z,31.1
2018-07-15T02:50:05.000Z,31.1
2018-07-15T02:51:50.000Z,31.2
2018-07-15T02:53:05.000Z,31.2
2018-07-15T02:55:05.000Z,31.1
2018-07-15T02:56:05.000Z,31
2018-07-15T02:58:05.000Z,31
2018-07-15T02:59:05.000Z,31
2018-07-15T03:01:05.000Z,31
2018-07-15T03:03:05.000Z,31
2018-07-15T03:04:05.000Z,31
2018-07-15T03:06:05.000Z,31
2018-07-15T03:08:05.000Z,31
2018-07-15T03:10:05.000Z,30.9
2018-07-15T03:12:05.000Z,30.9
2018-07-15T03:13:05.000Z,30.9
2018-07-15T03:15:05.000Z,30.9
2018-07-15T03:16:05.000Z,30.9
2018-07-15T03:17:05.000Z,31
2018-07-15T03:19:05.000Z,31
2018-07-15T03:21:05.000Z,31
2018-07-15T03:23:05.000Z,31
2018-07-15T03:25:05.000Z,30.9
2018-07-15T03:27:05.000Z,30.8
2018-07-15T03:28:05.000Z,30.8
2018-07-15T03:30:05.000Z,30.9
2018-07-15T03:32:05.000Z,30.9
2018-07-15T03:34:05.000Z,30.9
2018-07-15T03:36:05.000Z,30.8
2018-07-15T03:38:05.000Z,30.8
2018-07-15T03:40:05.000Z,30.7
2018-07-15T03:42:05.000Z,30.7
2018-07-15T03:43:05.000Z,30.7
2018-07-15T03:45:05.000Z,30.8
2018-07-15T03:46:05.000Z,30.8
2018-07-15T03:48:05.000Z,30.8
2018-07-15T03:50:05.000Z,30.8
2018-07-15T03:51:05.000Z,30.8
2018-07-15T03:53:05.000Z,30.8
2018-07-15T03:55:05.000Z,30.8
2018-07-15T03:57:05.000Z,30.7
2018-07-15T03:59:05.000Z,30.7
2018-07-15T04:01:05.000Z,30.7
2018-07-15T04:03:05.000Z,30.7
2018-07-15T04:05:05.000Z,30.7
2018-07-15T04:06:05.000Z,30.7
2018-07-15T04:07:05.000Z,30.8
2018-07-15T04:09:05.000Z,30.9
2018-07-15T04:11:05.000Z,30.9
2018-07-15T04:12:05.000Z,31
2018-07-15T04:13:50.000Z,31
2018-07-15T04:15:05.000Z,31
2018-07-15T04:16:05.000Z,31
2018-07-15T04:18:05.000Z,31
2018-07-15T04:19:05.000Z,31
2018-07-15T04:21:05.000Z,31
2018-07-15T04:22:05.000Z,31
2018-07-15T04:24:05.000Z,31.1
2018-07-15T04:26:05.000Z,31.1
2018-07-15T04:28:05.000Z,31
2018-07-15T04:29:05.000Z,31
2018-07-15T04:30:05.000Z,31.1
2018-07-15T04:32:05.000Z,31.1
2018-07-15T04:34:05.000Z,31.1
2018-07-15T04:36:05.000Z,31.1
2018-07-15T04:37:05.000Z,31.1
2018-07-15T04:39:05.000Z,31.1
2018-07-15T04:41:05.000Z,31.1
2018-07-15T04:42:05.000Z,31.1
2018-07-15T04:44:05.000Z,31.1
2018-07-15T04:47:51.000Z,30.6
2018-07-15T04:49:51.000Z,30.6
2018-07-15T04:50:51.000Z,30.7
2018-07-15T04:52:51.000Z,30.8
2018-07-15T04:54:51.000Z,30.8
2018-07-15T04:55:51.000Z,30.8
2018-07-15T04:56:51.000Z,30.8
2018-07-15T04:57:51.000Z,30.9
2018-07-15T04:59:36.000Z,31
2018-07-15T05:00:51.000Z,31
2018-07-15T05:02:51.000Z,31
2018-07-15T05:04:51.000Z,31
2018-07-15T05:06:51.000Z,31
2018-07-15T05:08:51.000Z,30.9
2018-07-15T05:09:51.000Z,30.9
2018-07-15T05:11:51.000Z,31
2018-07-15T05:13:51.000Z,31
2018-07-15T05:14:51.000Z,31
2018-07-15T05:15:51.000Z,31.1
2018-07-15T05:17:52.000Z,31.1
2018-07-15T05:19:52.000Z,31.1
2018-07-15T05:20:52.000Z,31.1
2018-07-15T05:22:36.000Z,31.2
2018-07-15T05:23:52.000Z,31.2
2018-07-15T05:24:52.000Z,31.2
2018-07-15T05:26:52.000Z,31.3
2018-07-15T05:27:52.000Z,31.3
2018-07-15T05:28:52.000Z,31.3
2018-07-15T05:30:52.000Z,31.4
2018-07-15T05:31:52.000Z,31.4
2018-07-15T05:33:52.000Z,31.4
2018-07-15T05:34:52.000Z,31.4
2018-07-15T05:35:52.000Z,31.4
2018-07-15T05:36:52.000Z,31.4
2018-07-15T05:38:52.000Z,31.4
2018-07-15T05:40:52.000Z,31.4
2018-07-15T05:41:52.000Z,31.4
2018-07-15T05:42:52.000Z,31.5
2018-07-15T05:44:52.000Z,31.5
2018-07-15T05:46:52.000Z,31.4
2018-07-15T05:47:52.000Z,31.4
2018-07-15T05:49:52.000Z,31.4
2018-07-15T05:51:52.000Z,31.4
2018-07-15T05:52:52.000Z,31.4
2018-07-15T05:53:52.000Z,31.4
2018-07-15T05:54:52.000Z,31.5
2018-07-15T05:55:52.000Z,31.5
2018-07-15T05:57:52.000Z,31.6
2018-07-15T05:58:52.000Z,31.6
2018-07-15T06:00:52.000Z,31.6
2018-07-15T06:02:52.000Z,31.6
2018-07-15T06:03:52.000Z,31.5
2018-07-15T06:04:52.000Z,31.6
2018-07-15T06:06:52.000Z,31.6
2018-07-15T06:08:52.000Z,31.5
2018-07-15T06:09:52.000Z,31.5
2018-07-15T06:11:52.000Z,31.5
2018-07-15T06:12:52.000Z,31.5
2018-07-15T06:14:52.000Z,31.6
2018-07-15T06:16:52.000Z,31.6
2018-07-15T06:18:52.000Z,31.5
2018-07-15T06:20:51.000Z,31.5
2018-07-15T06:21:51.000Z,31.5
2018-07-15T06:22:51.000Z,31.6
2018-07-15T06:24:51.000Z,31.6
2018-07-15T06:25:51.000Z,31.7
2018-07-15T06:26:51.000Z,31.7
2018-07-15T06:27:51.000Z,31.7
2018-07-15T06:28:51.000Z,31.8
2018-07-15T06:30:51.000Z,31.8
2018-07-15T06:31:51.000Z,31.7
2018-07-15T06:33:51.000Z,31.7
2018-07-15T06:34:51.000Z,31.8
2018-07-15T06:36:51.000Z,31.8
2018-07-15T06:38:51.000Z,31.7
2018-07-15T06:40:51.000Z,31.7
2018-07-15T06:42:51.000Z,31.7
2018-07-15T06:44:36.000Z,30.9
2018-07-15T06:45:51.000Z,31.6
2018-07-15T06:47:51.000Z,31.7
2018-07-15T06:49:51.000Z,31.6
2018-07-15T06:50:51.000Z,31.6
2018-07-15T06:52:51.000Z,31.6
2018-07-15T06:53:51.000Z,31.6
2018-07-15T06:55:51.000Z,31.6
2018-07-15T06:57:36.000Z,31.6
2018-07-15T06:58:51.000Z,31.6
2018-07-15T06:59:51.000Z,31.7
2018-07-15T07:01:51.000Z,31.7
2018-07-15T07:02:51.000Z,31.8
2018-07-15T07:04:51.000Z,31.8
2018-07-15T07:06:51.000Z,31.8
2018-07-15T07:08:36.000Z,31.9
2018-07-15T07:09:51.000Z,31.8
2018-07-15T07:11:36.000Z,31.9
2018-07-15T07:12:51.000Z,31.9
2018-07-15T07:13:51.000Z,31.9
2018-07-15T07:15:36.000Z,32
2018-07-15T07:16:51.000Z,32
2018-07-15T07:18:36.000Z,32
2018-07-15T07:19:51.000Z,32
2018-07-15T07:20:51.000Z,32
2018-07-15T07:21:51.000Z,32
2018-07-15T07:22:51.000Z,32.1
2018-07-15T07:23:51.000Z,32.1
2018-07-15T07:25:51.000Z,32.1
2018-07-15T07:26:51.000Z,32.1
2018-07-15T07:28:51.000Z,32.1
2018-07-15T07:29:51.000Z,32.1
2018-07-15T07:31:36.000Z,32.2
2018-07-15T07:32:51.000Z,32.2
2018-07-15T07:34:51.000Z,32.2
2018-07-15T07:36:36.000Z,32.2
2018-07-15T07:37:51.000Z,32.2
2018-07-15T07:38:51.000Z,32.3
2018-07-15T07:40:51.000Z,32.3
2018-07-15T07:42:51.000Z,32.3
2018-07-15T07:43:51.000Z,32.3
2018-07-15T07:45:51.000Z,32.3
2018-07-15T07:46:51.000Z,32.4
2018-07-15T07:48:51.000Z,32.4
2018-07-15T07:50:51.000Z,32.5
2018-07-15T07:51:51.000Z,32.5
2018-07-15T07:52:51.000Z,32.6
2018-07-15T07:54:51.000Z,32.6
2018-07-15T07:55:51.000Z,32.7
2018-07-15T07:57:51.000Z,32.7
2018-07-15T07:59:51.000Z,32.7
2018-07-15T08:00:51.000Z,32.7
2018-07-15T08:01:51.000Z,32.7
2018-07-15T08:03:51.000Z,32.8
2018-07-15T08:05:51.000Z,32.9
2018-07-15T08:07:36.000Z,32.9
2018-07-15T08:08:51.000Z,32.9
2018-07-15T08:09:51.000Z,32.9
2018-07-15T08:11:51.000Z,33
2018-07-15T08:13:51.000Z,33
2018-07-15T08:15:51.000Z,33
2018-07-15T08:16:51.000Z,33
2018-07-15T08:17:51.000Z,33
2018-07-15T08:19:51.000Z,33.1
2018-07-15T08:20:51.000Z,33.2
2018-07-15T08:22:51.000Z,33.3
2018-07-15T08:24:51.000Z,33.3
2018-07-15T08:26:51.000Z,33.2
2018-07-15T08:28:51.000Z,33
2018-07-15T08:30:51.000Z,32.8
2018-07-15T08:31:51.000Z,32.9
2018-07-15T08:32:51.000Z,33
2018-07-15T08:34:36.000Z,33.6
2018-07-15T08:35:51.000Z,34
2018-07-15T08:37:51.000Z,34.6
2018-07-15T08:38:51.000Z,34.9
2018-07-15T08:40:51.000Z,35.2
2018-07-15T08:42:51.000Z,35.1
2018-07-15T08:44:51.000Z,34.6
2018-07-15T08:45:51.000Z,34.3
2018-07-15T08:47:51.000Z,33.9
2018-07-15T08:49:51.000Z,33.5
2018-07-15T08:50:51.000Z,33.4
2018-07-15T08:52:51.000Z,33.2
2018-07-15T08:54:51.000Z,32.9
2018-07-15T08:56:36.000Z,32.8
2018-07-15T08:57:51.000Z,32.7
2018-07-15T08:59:51.000Z,32.6
2018-07-15T09:01:51.000Z,32.4
2018-07-15T09:03:51.000Z,32.3
2018-07-15T09:05:51.000Z,32.3
2018-07-15T09:07:51.000Z,32.2
2018-07-15T09:09:51.000Z,32.2
2018-07-15T09:11:51.000Z,32.2
2018-07-15T09:12:51.000Z,32.2
2018-07-15T09:14:51.000Z,32.2
2018-07-15T09:15:51.000Z,32.2
2018-07-15T09:17:51.000Z,32.2
2018-07-15T09:18:51.000Z,32.3
2018-07-15T09:19:51.000Z,32.3
2018-07-15T09:21:51.000Z,32.3
2018-07-15T09:22:51.000Z,32.4
2018-07-15T09:24:51.000Z,32.3
2018-07-15T09:25:51.000Z,32.3
2018-07-15T09:27:51.000Z,32.3
2018-07-15T09:29:51.000Z,32.2
2018-07-15T09:30:51.000Z,32.2
2018-07-15T09:32:52.000Z,32.2
2018-07-15T09:33:52.000Z,32.2
2018-07-15T09:34:52.000Z,32.3
2018-07-15T09:35:52.000Z,32.3
2018-07-15T09:36:52.000Z,32.4
2018-07-15T09:38:52.000Z,32.4
2018-07-15T09:39:52.000Z,32.4
2018-07-15T09:41:52.000Z,32.4
2018-07-15T09:42:52.000Z,32.4
2018-07-15T09:43:52.000Z,32.4
2018-07-15T09:45:52.000Z,32.4
2018-07-15T09:47:52.000Z,32.3
2018-07-15T09:49:52.000Z,32.2
2018-07-15T09:50:52.000Z,32.2
2018-07-15T09:51:52.000Z,32.2
2018-07-15T09:52:52.000Z,32.2
2018-07-15T09:54:52.000Z,32.2
2018-07-15T09:56:52.000Z,32.2
2018-07-15T09:58:52.000Z,32.2
2018-07-15T09:59:52.000Z,32.2
2018-07-15T10:01:52.000Z,32.2
2018-07-15T10:02:52.000Z,32.2
2018-07-15T10:04:52.000Z,32.2
2018-07-15T10:06:36.000Z,32.2
2018-07-15T10:07:52.000Z,32.1
2018-07-15T10:08:52.000Z,32.1
2018-07-15T10:10:36.000Z,32.2
2018-07-15T10:11:52.000Z,32.2
2018-07-15T10:13:52.000Z,32.2
2018-07-15T10:14:52.000Z,32.2
2018-07-15T10:16:52.000Z,32.2
2018-07-15T10:18:52.000Z,32.2
2018-07-15T10:19:52.000Z,32.2
2018-07-15T10:21:52.000Z,32.2
2018-07-15T10:23:52.000Z,32.2
2018-07-15T10:25:36.000Z,32.2
2018-07-15T10:26:52.000Z,32.1
2018-07-15T10:27:52.000Z,32.1
2018-07-15T10:29:52.000Z,32.2
2018-07-15T10:31:52.000Z,32.2
2018-07-15T10:33:52.000Z,32.1
2018-07-15T10:35:51.000Z,32.1
2018-07-15T10:36:51.000Z,32.1
2018-07-15T10:38:51.000Z,32.2
2018-07-15T10:39:51.000Z,32.2
2018-07-15T10:41:51.000Z,32.2
2018-07-15T10:43:51.000Z,32.2
2018-07-15T10:45:51.000Z,32.2
2018-07-15T10:47:51.000Z,32.2
2018-07-15T10:49:51.000Z,32.1
2018-07-15T10:51:51.000Z,32.1
2018-07-15T10:53:51.000Z,32
2018-07-15T10:55:51.000Z,32
2018-07-15T10:57:51.000Z,32
2018-07-15T10:58:51.000Z,32
2018-07-15T11:00:51.000Z,32.1
2018-07-15T11:02:51.000Z,32
2018-07-15T11:03:51.000Z,32
2018-07-15T11:05:51.000Z,32
2018-07-15T11:07:51.000Z,32
2018-07-15T11:08:51.000Z,32
2018-07-15T11:10:36.000Z,32.1
2018-07-15T11:11:51.000Z,32.1
2018-07-15T11:12:51.000Z,32.1
2018-07-15T11:14:51.000Z,32.2
2018-07-15T11:15:51.000Z,32.2
2018-07-15T11:17:51.000Z,32.3
2018-07-15T11:19:51.000Z,32.2
2018-07-15T11:20:51.000Z,32.3
2018-07-15T11:21:51.000Z,32.3
2018-07-15T11:22:51.000Z,32.3
2018-07-15T11:24:51.000Z,32.3
2018-07-15T11:26:51.000Z,32.3
2018-07-15T11:27:51.000Z,32.3
2018-07-15T11:29:36.000Z,32.3
2018-07-15T11:30:51.000Z,32.3
2018-07-15T11:31:51.000Z,32.3
2018-07-15T11:33:51.000Z,32.3
2018-07-15T11:35:51.000Z,32.2
2018-07-15T11:37:51.000Z,32.2
2018-07-15T11:39:52.000Z,32.2
2018-07-15T11:41:52.000Z,32.2
2018-07-15T11:43:52.000Z,32.2
2018-07-15T11:45:36.000Z,32.2
2018-07-15T11:46:52.000Z,32.1
2018-07-15T11:48:52.000Z,32.1
2018-07-15T11:49:52.000Z,32.1
2018-07-15T11:51:52.000Z,32.2
2018-07-15T11:53:36.000Z,32.2
2018-07-15T11:54:52.000Z,32.2
2018-07-15T11:56:36.000Z,32.2
2018-07-15T11:57:52.000Z,32.2
2018-07-15T11:59:52.000Z,32.1
2018-07-15T12:01:52.000Z,32
2018-07-15T12:03:52.000Z,32
2018-07-15T12:04:52.000Z,32
2018-07-15T12:06:52.000Z,32
2018-07-15T12:07:52.000Z,32
2018-07-15T12:08:52.000Z,32.1
2018-07-15T12:10:36.000Z,32.2
2018-07-15T12:11:52.000Z,32.2
2018-07-15T12:12:52.000Z,32.2
2018-07-15T12:14:52.000Z,32.3
2018-07-15T12:16:52.000Z,32.3
2018-07-15T12:18:36.000Z,32.3
2018-07-15T12:19:52.000Z,32.2
2018-07-15T12:20:52.000Z,32.3
2018-07-15T12:22:52.000Z,32.3
2018-07-15T12:24:52.000Z,32.2
2018-07-15T12:26:52.000Z,32.2
2018-07-15T12:28:52.000Z,32.1
2018-07-15T12:29:52.000Z,32.1
2018-07-15T12:31:52.000Z,32.2
2018-07-15T12:32:52.000Z,32.2
2018-07-15T12:33:52.000Z,32.2
2018-07-15T12:35:52.000Z,32.2
2018-07-15T12:37:52.000Z,32.2
2018-07-15T12:39:52.000Z,32.2
2018-07-15T12:41:52.000Z,32.2
2018-07-15T12:42:51.000Z,32.2
2018-07-15T12:44:51.000Z,32.2
2018-07-15T12:45:51.000Z,32.2
2018-07-15T12:46:51.000Z,32.2
2018-07-15T12:48:51.000Z,32.3
2018-07-15T12:50:36.000Z,32.3
2018-07-15T12:51:51.000Z,32.2
2018-07-15T12:52:51.000Z,32.3
2018-07-15T12:54:51.000Z,32.3
2018-07-15T12:55:51.000Z,32.3
2018-07-15T12:56:51.000Z,32.4
2018-07-15T12:58:51.000Z,32.3
2018-07-15T13:00:51.000Z,32.3
2018-07-15T13:01:51.000Z,32.3
2018-07-15T13:03:51.000Z,32.3
2018-07-15T13:05:51.000Z,32.3
2018-07-15T13:07:51.000Z,32.3
2018-07-15T13:08:51.000Z,32.3
2018-07-15T13:10:51.000Z,32.2
2018-07-15T13:11:51.000Z,32.2
2018-07-15T13:12:51.000Z,32.3
2018-07-15T13:14:51.000Z,32.3
2018-07-15T13:15:51.000Z,32.3
2018-07-15T13:17:51.000Z,32.4
2018-07-15T13:19:51.000Z,32.3
2018-07-15T13:20:51.000Z,32.4
2018-07-15T13:22:51.000Z,32.4
2018-07-15T13:24:51.000Z,32.4
2018-07-15T13:26:51.000Z,32.3
2018-07-15T13:28:51.000Z,32.3
2018-07-15T13:30:51.000Z,32.2
2018-07-15T13:31:51.000Z,32.3
2018-07-15T13:33:51.000Z,32.3
2018-07-15T13:35:51.000Z,32.3
2018-07-15T13:36:51.000Z,32.4
2018-07-15T13:37:51.000Z,32.4
2018-07-15T13:39:51.000Z,32.3
2018-07-15T13:41:51.000Z,32.3
2018-07-15T13:43:36.000Z,32.3
2018-07-15T13:44:51.000Z,32.3
2018-07-15T13:45:51.000Z,32.3
2018-07-15T13:46:51.000Z,32.3
2018-07-15T13:48:51.000Z,32.3
2018-07-15T13:49:51.000Z,32.3
2018-07-15T13:51:36.000Z,32.3
2018-07-15T13:52:51.000Z,32.3
2018-07-15T13:53:51.000Z,32.4
2018-07-15T13:55:51.000Z,32.4
2018-07-15T13:56:51.000Z,32.5
2018-07-15T13:58:51.000Z,32.5
2018-07-15T13:59:51.000Z,32.5
2018-07-15T14:00:51.000Z,32.5
2018-07-15T14:02:51.000Z,32.5
2018-07-15T14:04:51.000Z,32.5
2018-07-15T14:06:51.000Z,32.4
2018-07-15T14:07:51.000Z,32.4
2018-07-15T14:09:51.000Z,32.4
2018-07-15T14:10:51.000Z,32.4
2018-07-15T14:11:52.000Z,32.5
2018-07-15T14:13:51.000Z,32.5
2018-07-15T14:15:36.000Z,32.5
2018-07-15T14:16:51.000Z,32.5
2018-07-15T14:18:51.000Z,32.4
2018-07-15T14:20:51.000Z,32.3
2018-07-15T14:21:51.000Z,32.2
2018-07-15T14:23:51.000Z,32.3
2018-07-15T14:24:51.000Z,32.3
2018-07-15T14:26:51.000Z,32.2
2018-07-15T14:27:51.000Z,32.2
2018-07-15T14:28:51.000Z,32.3
2018-07-15T14:30:51.000Z,32.3
2018-07-15T14:32:51.000Z,32.3
2018-07-15T14:33:51.000Z,32.3
2018-07-15T14:35:51.000Z,32.3
2018-07-15T14:37:52.000Z,32.3
2018-07-15T14:39:51.000Z,32.3
2018-07-15T14:40:51.000Z,32.3
2018-07-15T14:42:51.000Z,32.3
2018-07-15T14:43:51.000Z,32.4
2018-07-15T14:45:51.000Z,32.5
2018-07-15T14:47:51.000Z,32.4
2018-07-15T14:49:51.000Z,32.3
2018-07-15T14:50:51.000Z,32.3
2018-07-15T14:51:51.000Z,32.4
2018-07-15T14:52:51.000Z,32.4
2018-07-15T14:54:51.000Z,32.5
2018-07-15T14:55:51.000Z,32.5
2018-07-15T14:57:51.000Z,32.5
2018-07-15T14:59:51.000Z,32.4
2018-07-15T15:00:51.000Z,32.4
2018-07-15T15:01:51.000Z,32.4
2018-07-15T15:02:51.000Z,32.4
2018-07-15T15:04:51.000Z,32.4
2018-07-15T15:06:51.000Z,32.4
2018-07-15T15:08:51.000Z,32.3
2018-07-15T15:10:51.000Z,32.2
2018-07-15T15:11:51.000Z,32.2
2018-07-15T15:12:51.000Z,32.3
2018-07-15T15:14:51.000Z,32.4
2018-07-15T15:16:51.000Z,32.4
2018-07-15T15:17:51.000Z,32.4
2018-07-15T15:18:51.000Z,32.5
2018-07-15T15:19:51.000Z,32.5
2018-07-15T15:20:51.000Z,32.5
2018-07-15T15:22:36.000Z,32.6
2018-07-15T15:23:51.000Z,32.6
2018-07-15T15:25:51.000Z,32.4
2018-07-15T15:27:51.000Z,32.3
2018-07-15T15:28:51.000Z,32.3
2018-07-15T15:30:51.000Z,32.3
2018-07-15T15:32:51.000Z,32.3
2018-07-15T15:33:51.000Z,32.3
2018-07-15T15:34:51.000Z,32.4
2018-07-15T15:36:51.000Z,32.5
2018-07-15T15:38:51.000Z,32.5
2018-07-15T15:40:36.000Z,32.4
2018-07-15T15:41:51.000Z,32.4
2018-07-15T15:42:51.000Z,32.4
2018-07-15T15:44:51.000Z,32.4
2018-07-15T15:46:51.000Z,32.4
2018-07-15T15:48:51.000Z,32.4
2018-07-15T15:50:51.000Z,32.3
2018-07-15T15:52:51.000Z,32.2
2018-07-15T15:54:51.000Z,32.2
2018-07-15T15:56:51.000Z,32.2
2018-07-15T15:58:36.000Z,32.2
2018-07-15T15:59:51.000Z,32.2
2018-07-15T16:01:36.000Z,32.2
2018-07-15T16:02:51.000Z,32.2
2018-07-15T16:03:51.000Z,32.2
2018-07-15T16:04:51.000Z,32.3
2018-07-15T16:06:51.000Z,32.4
2018-07-15T16:08:51.000Z,32.4
2018-07-15T16:09:51.000Z,32.4
2018-07-15T16:11:51.000Z,32.4
2018-07-15T16:12:51.000Z,32.4
2018-07-15T16:13:51.000Z,32.5
2018-07-15T16:15:51.000Z,32.5
2018-07-15T16:16:51.000Z,32.5
2018-07-15T16:18:51.000Z,32.5
2018-07-15T16:20:51.000Z,32.3
2018-07-15T16:22:51.000Z,32.2
2018-07-15T16:23:51.000Z,32.2
2018-07-15T16:25:51.000Z,32.2
2018-07-15T16:27:51.000Z,32.2
2018-07-15T16:29:51.000Z,32.2
2018-07-15T16:31:36.000Z,32.2
2018-07-15T16:32:51.000Z,32.2
2018-07-15T16:33:51.000Z,32.2
2018-07-15T16:35:51.000Z,32.3
2018-07-15T16:37:51.000Z,32.3
2018-07-15T16:39:51.000Z,32.2
2018-07-15T16:41:51.000Z,32.2
2018-07-15T16:42:51.000Z,32.2
2018-07-15T16:44:51.000Z,32.2
2018-07-15T16:45:51.000Z,32.3
2018-07-15T16:46:51.000Z,32.3
2018-07-15T16:47:51.000Z,32.4
2018-07-15T16:49:51.000Z,32.5
2018-07-15T16:50:51.000Z,32.5
2018-07-15T16:52:51.000Z,32.5
2018-07-15T16:54:51.000Z,32.5
2018-07-15T16:56:51.000Z,32.4
2018-07-15T16:58:51.000Z,32.3
2018-07-15T16:59:51.000Z,32.3
2018-07-15T17:01:51.000Z,32.3
2018-07-15T17:05:37.000Z,31.9
2018-07-15T17:06:37.000Z,31.9
2018-07-15T17:07:37.000Z,32
2018-07-15T17:09:37.000Z,32.2
2018-07-15T17:11:37.000Z,32.2
2018-07-15T17:13:37.000Z,32.3
2018-07-15T17:14:37.000Z,32.3
2018-07-15T17:16:37.000Z,32.4
2018-07-15T17:17:37.000Z,32.4
2018-07-15T17:19:37.000Z,32.5
2018-07-15T17:21:37.000Z,32.5
2018-07-15T17:23:37.000Z,32.4
2018-07-15T17:25:37.000Z,32.4
2018-07-15T17:26:37.000Z,32.5
2018-07-15T17:28:37.000Z,32.5
2018-07-15T17:29:37.000Z,32.5
2018-07-15T17:30:37.000Z,32.5
2018-07-15T17:32:37.000Z,32.4
2018-07-15T17:33:37.000Z,32.4
2018-07-15T17:35:37.000Z,32.4
2018-07-15T17:37:37.000Z,32.5
2018-07-15T17:38:37.000Z,32.5
2018-07-15T17:40:37.000Z,32.5
2018-07-15T17:42:37.000Z,32.5
2018-07-15T17:44:37.000Z,32.4
2018-07-15T17:45:37.000Z,32.4
2018-07-15T17:47:37.000Z,32.5
2018-07-15T17:49:37.000Z,32.4
2018-07-15T17:51:37.000Z,32.4
2018-07-15T17:53:22.000Z,32.4
2018-07-15T17:54:37.000Z,32.3
2018-07-15T17:55:37.000Z,32.4
2018-07-15T17:57:37.000Z,32.4
2018-07-15T17:58:37.000Z,32.4
2018-07-15T18:00:22.000Z,32.4
2018-07-15T18:01:37.000Z,32.4
2018-07-15T18:02:37.000Z,32.5
2018-07-15T18:04:37.000Z,32.5
2018-07-15T18:06:37.000Z,32.4
2018-07-15T18:08:37.000Z,32.4
2018-07-15T18:09:37.000Z,32.4
2018-07-15T18:11:37.000Z,32.5
2018-07-15T18:13:22.000Z,32.5
2018-07-15T18:14:37.000Z,32.4
2018-07-15T18:15:37.000Z,32.4
2018-07-15T18:17:37.000Z,32.5
2018-07-15T18:18:37.000Z,32.5
2018-07-15T18:20:37.000Z,32.6
2018-07-15T18:22:37.000Z,32.5
2018-07-15T18:24:37.000Z,32.5
2018-07-15T18:26:37.000Z,32.5
2018-07-15T18:28:37.000Z,32.4
2018-07-15T18:30:37.000Z,32.4
2018-07-15T18:32:37.000Z,32.4
2018-07-15T18:33:37.000Z,32.4
2018-07-15T18:35:37.000Z,32.4
2018-07-15T18:37:37.000Z,32.4
2018-07-15T18:39:37.000Z,32.4
2018-07-15T18:41:37.000Z,32.4
2018-07-15T18:43:37.000Z,32.3
2018-07-15T18:45:37.000Z,32.3
2018-07-15T18:46:37.000Z,32.3
2018-07-15T18:48:37.000Z,32.4
2018-07-15T18:49:37.000Z,32.4
2018-07-15T18:51:37.000Z,32.4
2018-07-15T18:53:22.000Z,32.3
2018-07-15T18:54:37.000Z,32.3
2018-07-15T18:56:37.000Z,32.2
2018-07-15T18:58:37.000Z,32.2
2018-07-15T19:00:37.000Z,32.2
2018-07-15T19:02:37.000Z,32.1
2018-07-15T19:03:37.000Z,32.1
2018-07-15T19:04:37.000Z,32.1
2018-07-15T19:06:37.000Z,32.2
2018-07-15T19:07:37.000Z,32.2
2018-07-15T19:08:37.000Z,32.2
2018-07-15T19:10:37.000Z,32.3
2018-07-15T19:11:37.000Z,32.4
2018-07-15T19:13:22.000Z,32.4
2018-07-15T19:14:37.000Z,32.4
2018-07-15T19:15:37.000Z,32.4
2018-07-15T19:17:37.000Z,32.3
2018-07-15T19:19:37.000Z,32.3
2018-07-15T19:21:37.000Z,32.2
2018-07-15T19:23:37.000Z,32.1
2018-07-15T19:25:37.000Z,32.1
2018-07-15T19:26:37.000Z,32.1
2018-07-15T19:27:37.000Z,32.1
2018-07-15T19:29:22.000Z,32.2
2018-07-15T19:30:37.000Z,32.2
2018-07-15T19:31:37.000Z,32.2
2018-07-15T19:33:37.000Z,32.2
2018-07-15T19:35:37.000Z,32.2
2018-07-15T19:37:37.000Z,32.1
2018-07-15T19:38:37.000Z,32
2018-07-15T19:40:37.000Z,32
2018-07-15T19:41:37.000Z,32
2018-07-15T19:42:37.000Z,32
2018-07-15T19:44:37.000Z,32
2018-07-15T19:45:37.000Z,32
2018-07-15T19:47:37.000Z,32
2018-07-15T19:48:37.000Z,32.1
2018-07-15T19:50:37.000Z,32.1
2018-07-15T19:51:37.000Z,32.1
2018-07-15T19:52:37.000Z,32.1
2018-07-15T19:53:37.000Z,32.2
2018-07-15T19:55:37.000Z,32.2
2018-07-15T19:56:37.000Z,32.2
2018-07-15T19:57:37.000Z,32.2
2018-07-15T19:59:37.000Z,32.2
2018-07-15T20:01:22.000Z,32.2
2018-07-15T20:02:37.000Z,32.1
2018-07-15T20:03:37.000Z,32.1
2018-07-15T20:05:37.000Z,32.2
2018-07-15T20:06:37.000Z,32.2
2018-07-15T20:08:37.000Z,32.1
2018-07-15T20:09:37.000Z,32.1
2018-07-15T20:10:37.000Z,32.1
2018-07-15T20:12:37.000Z,32.1
2018-07-15T20:13:37.000Z,32.1
2018-07-15T20:14:37.000Z,32.1
2018-07-15T20:16:37.000Z,32.1
2018-07-15T20:17:37.000Z,32.1
2018-07-15T20:18:37.000Z,32.1
2018-07-15T20:20:37.000Z,32.1
2018-07-15T20:21:37.000Z,32.1
2018-07-15T20:23:37.000Z,32.1
2018-07-15T20:25:37.000Z,32.1
2018-07-15T20:27:37.000Z,32
2018-07-15T20:28:37.000Z,32.1
2018-07-15T20:30:37.000Z,32.1
2018-07-15T20:31:37.000Z,32.1
2018-07-15T20:33:37.000Z,32.1
2018-07-15T20:35:37.000Z,32.1
2018-07-15T20:37:37.000Z,32
2018-07-15T20:38:37.000Z,32
2018-07-15T20:40:37.000Z,32
2018-07-15T20:42:37.000Z,32
2018-07-15T20:44:37.000Z,31.9
2018-07-15T20:45:37.000Z,31.9
2018-07-15T20:46:37.000Z,32
2018-07-15T20:47:37.000Z,32
2018-07-15T20:49:37.000Z,32
2018-07-15T20:51:37.000Z,32
2018-07-15T20:53:37.000Z,32
2018-07-15T20:55:37.000Z,31.9
2018-07-15T20:57:22.000Z,31.8
2018-07-15T20:58:37.000Z,31.8
2018-07-15T20:59:37.000Z,31.8
2018-07-15T21:01:37.000Z,31.9
2018-07-15T21:03:37.000Z,31.9
2018-07-15T21:05:37.000Z,31.9
2018-07-15T21:06:37.000Z,31.9
2018-07-15T21:08:37.000Z,31.8